Nos coordonnées

Nous sommes à votre écoute du lundi au dimanche de 10:00 à 19:00 au :

+32 (0)495 19 89 53

 

Adresse d'exploitation Adresse de facturation
Chaussée de Nivelles, 629
6230 Buzet
Belgique
Kouter 107/2
9000 Gent
Belgique

contact @ blackhelicopters.be (n'oubliez pas de supprimer les espaces)


Nous retrouver

Il est très fortement conseillé de nous appeler avant de venir sur le terrain, nous pouvons être en mission ou en vol!

 

La carte ci-dessous est interactive, cherchez vos itinéraires, déplacez la pour vous retrouver.

News

Votre panier

Le panier est vide

Météo Charleroi

METAR
EBCI 142350Z 03006KT 9999 SCT025 04/03 Q1001 NOSIG =
EBCI 142310Z 1500/1606 04008KT 9999 SCT025 BECMG 1504/1506 SCT005 BKN007 PROB40 TEMPO 1506/1512 BKN004 PROB30 TEMPO 1510/1512 3000 -RADZ -RASN BECMG 1513/1515 SCT007 BKN011 BECMG 1515/1517 SCT020
TAF
EBCI 142310Z 1500/1606 04008KT 9999 SCT025 BECMG 1504/1506 SCT005 BKN007 PROB40 TEMPO 1506/1512 BKN004 PROB30 TEMPO 1510/1512 3000 -RADZ -RASN BECMG 1513/1515 SCT007 BKN011 BECMG 1515/1517 SCT020 =
Lever / Coucher : 06:57 / 15:58 UTC (Buzet 2019-11-15)